Time;durP1;ratioP1;P1;durP2;ratioP2;P2;SDS_P1;SDS_P2;PMS_P1;PMS_P2;Temp;Humidity;BMP_temperature;BMP_pressure;BME280_temperature;BME280_humidity;BME280_pressure;Samples;Min_cycle;Max_cycle;Signal;HPM_P1;HPM_P2
2022/05/03 00:00:09;;;;;;;;;;;;;;;18.25;44.23;102117.56;4958822;29;19991;-78
2022/05/03 00:02:53;;;;;;;;;;;;;;;18.26;44.10;102113.22;4943202;29;19915;-78
2022/05/03 00:05:30;;;;;;;;;;;;;;;18.25;44.27;102114.09;4958306;29;19919;-78
2022/05/03 00:08:01;;;;;;;;;;;;;;;18.25;44.20;102114.09;4958500;29;19925;-78
2022/05/03 00:10:44;;;;;;;;;;;;;;;18.25;44.30;102119.31;4955882;29;19978;-78
2022/05/03 00:13:12;;;;;;;;;;;;;;;18.24;44.27;102100.19;4956706;29;20021;-78
2022/05/03 00:15:39;;;;;;;;;;;;;;;18.24;44.31;102105.38;4956853;29;19915;-78
2022/05/03 00:18:06;;;;;;;;;;;;;;;18.24;44.10;102100.19;4957076;29;19915;-78
2022/05/03 00:20:32;;;;;;;;;;;;;;;18.23;44.28;102095.84;4941179;29;19926;-78
2022/05/03 00:22:58;;;;;;;;;;;;;;;18.22;44.19;102094.06;4957873;28;20307;-78
2022/05/03 00:25:24;;;;;;;;;;;;;;;18.23;44.27;102108.00;4946802;28;20014;-79
2022/05/03 00:27:51;;;;;;;;;;;;;;;18.24;44.24;102108.00;4980558;28;20024;-78
2022/05/03 00:30:16;;;;;;;;;;;;;;;18.23;44.28;102111.47;4980153;28;19918;-78
2022/05/03 00:32:42;;;;;;;;;;;;;;;18.23;44.21;102108.88;4964332;28;19918;-78
2022/05/03 00:35:09;;;;;;;;;;;;;;;18.24;44.31;102107.13;4963962;28;19917;-78
2022/05/03 00:37:34;;;;;;;;;;;;;;;18.22;44.24;102101.03;4964159;28;19922;-78
2022/05/03 00:40:00;;;;;;;;;;;;;;;18.23;44.21;102100.19;4964150;28;19924;-78
2022/05/03 00:42:29;;;;;;;;;;;;;;;18.23;44.27;102100.19;4980143;28;20295;-78
2022/05/03 00:45:00;;;;;;;;;;;;;;;18.21;44.10;102097.56;4980526;28;19921;-78
2022/05/03 00:47:32;;;;;;;;;;;;;;;18.21;44.29;102102.78;4980259;28;19914;-78
2022/05/03 00:50:07;;;;;;;;;;;;;;;18.22;44.07;102101.03;4982229;28;19994;-78
2022/05/03 00:52:47;;;;;;;;;;;;;;;18.21;44.11;102097.56;4980744;28;20012;-78
2022/05/03 00:55:22;;;;;;;;;;;;;;;18.22;44.22;102103.63;4981250;28;20008;-78
2022/05/03 00:58:03;;;;;;;;;;;;;;;18.20;44.29;102103.63;4982423;28;19920;-78
2022/05/03 01:00:31;;;;;;;;;;;;;;;18.22;44.30;102103.63;4981653;28;19914;-78
2022/05/03 01:03:05;;;;;;;;;;;;;;;18.20;44.11;102101.00;4982125;28;19920;-78
2022/05/03 01:05:44;;;;;;;;;;;;;;;18.20;44.10;102094.94;4999763;28;20363;-78
2022/05/03 01:08:12;;;;;;;;;;;;;;;18.19;44.14;102096.66;5000968;28;19914;-78
2022/05/03 01:10:46;;;;;;;;;;;;;;;18.19;44.24;102094.06;4982565;28;19978;-78
2022/05/03 01:13:44;;;;;;;;;;;;;;;18.18;44.00;102092.34;4982293;28;19950;-78
2022/05/03 01:16:28;;;;;;;;;;;;;;;18.19;44.23;102093.19;4950155;28;20307;-78
2022/05/03 01:18:59;;;;;;;;;;;;;;;18.19;44.12;102093.19;4982730;28;20355;-78
2022/05/03 01:21:42;;;;;;;;;;;;;;;18.18;44.04;102100.16;4982358;28;19972;-78
2022/05/03 01:24:19;;;;;;;;;;;;;;;18.19;44.19;102095.81;4981730;28;19914;-78
2022/05/03 01:26:47;;;;;;;;;;;;;;;18.18;44.24;102094.94;4982389;28;19932;-78
2022/05/03 01:29:32;;;;;;;;;;;;;;;18.17;44.08;102095.78;5001116;28;19924;-78
2022/05/03 01:32:05;;;;;;;;;;;;;;;18.18;44.24;102094.94;4967096;28;19925;-78
2022/05/03 01:34:31;;;;;;;;;;;;;;;18.16;44.22;102098.38;4980499;28;19968;-78
2022/05/03 01:36:59;;;;;;;;;;;;;;;18.18;44.27;102100.16;4981512;28;19917;-78
2022/05/03 01:39:45;;;;;;;;;;;;;;;18.17;44.14;102103.59;4980639;28;19913;-78
2022/05/03 01:42:20;;;;;;;;;;;;;;;18.17;44.37;102097.53;4971277;28;19956;-78
2022/05/03 01:45:07;;;;;;;;;;;;;;;18.17;44.13;102094.91;4986288;28;19972;-79
2022/05/03 01:47:36;;;;;;;;;;;;;;;18.16;44.26;102093.16;4986336;28;19914;-78
2022/05/03 01:50:20;;;;;;;;;;;;;;;18.16;44.12;102091.44;4983936;28;19969;-78
2022/05/03 01:53:15;;;;;;;;;;;;;;;18.16;44.13;102091.44;4985135;28;19976;-78
2022/05/03 01:55:53;;;;;;;;;;;;;;;18.15;43.96;102091.44;4971844;28;19921;-78
2022/05/03 01:58:30;;;;;;;;;;;;;;;18.15;44.08;102094.03;4984820;28;19925;-78
2022/05/03 02:01:04;;;;;;;;;;;;;;;18.15;44.14;102097.50;4984121;28;19914;-78
2022/05/03 02:03:30;;;;;;;;;;;;;;;18.15;44.33;102094.03;4983950;28;19920;-78
2022/05/03 02:06:27;;;;;;;;;;;;;;;18.15;44.08;102094.03;4983367;28;19920;-78
2022/05/03 02:09:05;;;;;;;;;;;;;;;18.15;43.96;102083.63;4951085;28;20428;-78
2022/05/03 02:11:31;;;;;;;;;;;;;;;18.14;44.16;102081.84;4982942;28;19921;-78
2022/05/03 02:17:00;;;;;;;;;;;;;;;18.13;44.07;102083.59;4998620;28;19924;-78
2022/05/03 02:19:35;;;;;;;;;;;;;;;18.13;44.05;102088.81;4981593;28;19967;-78
2022/05/03 02:22:04;;;;;;;;;;;;;;;18.14;44.19;102084.47;4981599;28;19976;-78
2022/05/03 02:25:01;;;;;;;;;;;;;;;18.13;44.23;102083.59;4998477;28;20007;-78
2022/05/03 02:27:31;;;;;;;;;;;;;;;18.13;44.11;102080.97;4949739;28;19969;-79
2022/05/03 02:29:57;;;;;;;;;;;;;;;18.12;44.25;102084.47;4998691;28;20447;-78
2022/05/03 02:32:26;;;;;;;;;;;;;;;18.13;44.23;102085.34;4981510;28;19996;-78
2022/05/03 02:34:59;;;;;;;;;;;;;;;18.12;44.20;102080.97;4981575;28;20364;-78
2022/05/03 02:37:32;;;;;;;;;;;;;;;18.12;44.06;102078.34;4981067;28;19914;-78
2022/05/03 02:39:59;;;;;;;;;;;;;;;18.11;44.16;102085.31;4979236;28;19913;-78
2022/05/03 02:42:25;;;;;;;;;;;;;;;18.11;44.14;102074.88;4979564;28;19961;-79
2022/05/03 02:44:52;;;;;;;;;;;;;;;18.11;43.92;102081.84;4978874;28;19914;-78
2022/05/03 02:47:23;;;;;;;;;;;;;;;18.12;44.20;102080.97;4978248;28;20403;-78
2022/05/03 02:50:08;;;;;;;;;;;;;;;18.09;44.02;102080.09;4978989;28;19922;-78
2022/05/03 02:52:40;;;;;;;;;;;;;;;18.09;44.26;102077.50;4995946;28;19914;-78
2022/05/03 02:55:24;;;;;;;;;;;;;;;18.10;43.99;102078.38;4978430;28;19921;-78
2022/05/03 02:58:04;;;;;;;;;;;;;;;18.10;44.04;102078.38;4978600;28;19925;-77
2022/05/03 03:03:36;;;;;;;;;;;;;;;18.08;44.03;102073.13;4996297;28;20287;-77
2022/05/03 03:06:02;;;;;;;;;;;;;;;18.09;43.89;102071.41;4977878;28;19925;-76
2022/05/03 03:08:43;;;;;;;;;;;;;;;18.09;44.21;102068.78;4995395;28;19914;-77
2022/05/03 03:11:12;;;;;;;;;;;;;;;18.07;44.01;102063.59;4977976;28;20283;-76
2022/05/03 03:14:07;;;;;;;;;;;;;;;18.08;44.01;102062.72;4995302;28;20279;-78
2022/05/03 03:16:34;;;;;;;;;;;;;;;18.08;44.01;102061.84;4965417;28;19913;-76
2022/05/03 03:19:07;;;;;;;;;;;;;;;18.06;44.05;102059.22;4977601;28;20008;-76
2022/05/03 03:21:35;;;;;;;;;;;;;;;18.07;44.06;102054.88;4977576;28;19949;-77
2022/05/03 03:24:01;;;;;;;;;;;;;;;18.06;44.00;102067.03;4994846;28;19914;-77
2022/05/03 03:26:30;;;;;;;;;;;;;;;18.08;44.11;102067.06;4961119;28;19988;-76
2022/05/03 03:28:58;;;;;;;;;;;;;;;18.07;43.93;102067.91;4977344;28;19980;-76
2022/05/03 03:31:25;;;;;;;;;;;;;;;18.07;43.97;102067.91;4977353;28;19918;-77
2022/05/03 03:33:51;;;;;;;;;;;;;;;18.06;44.10;102063.56;4977346;28;20004;-76
2022/05/03 03:36:17;;;;;;;;;;;;;;;18.06;43.99;102067.03;4994574;28;19965;-76
2022/05/03 03:38:46;;;;;;;;;;;;;;;18.06;44.04;102061.84;4977377;28;19921;-76
2022/05/03 03:41:11;;;;;;;;;;;;;;;18.06;43.91;102068.78;4977329;28;19914;-76
2022/05/03 03:43:37;;;;;;;;;;;;;;;18.05;43.84;102060.09;4960995;28;20295;-76
2022/05/03 03:46:02;;;;;;;;;;;;;;;18.05;43.94;102067.03;4961173;28;20000;-76
2022/05/03 03:48:27;;;;;;;;;;;;;;;18.05;44.08;102064.41;4977346;28;19918;-76
2022/05/03 03:50:54;;;;;;;;;;;;;;;18.04;43.96;102065.28;4976863;28;19925;-76
2022/05/03 03:53:19;;;;;;;;;;;;;;;18.05;44.00;102072.22;4994530;28;19921;-76
2022/05/03 03:55:45;;;;;;;;;;;;;;;18.04;44.08;102068.75;4960922;28;19926;-76
2022/05/03 03:58:10;;;;;;;;;;;;;;;18.04;44.11;102062.69;4978673;28;19933;-75
2022/05/03 04:00:36;;;;;;;;;;;;;;;18.05;43.93;102064.41;4980912;28;20005;-76
2022/05/03 04:03:02;;;;;;;;;;;;;;;18.05;44.07;102067.03;4964644;28;19973;-76
2022/05/03 04:05:28;;;;;;;;;;;;;;;18.04;43.84;102062.69;4964985;28;19918;-76
2022/05/03 04:07:53;;;;;;;;;;;;;;;18.05;43.88;102056.59;4998137;28;19917;-79
2022/05/03 04:10:19;;;;;;;;;;;;;;;18.04;43.94;102054.88;4998194;28;20335;-76
2022/05/03 04:12:44;;;;;;;;;;;;;;;18.04;44.02;102060.09;4980588;28;20360;-75
2022/05/03 04:15:10;;;;;;;;;;;;;;;18.04;43.91;102062.69;4980376;28;19964;-75
2022/05/03 04:17:35;;;;;;;;;;;;;;;18.03;43.90;102056.59;4980498;28;20364;-76
2022/05/03 04:20:01;;;;;;;;;;;;;;;18.04;43.99;102062.69;4980504;28;20376;-76
2022/05/03 04:22:27;;;;;;;;;;;;;;;18.03;43.86;102067.03;4980969;28;19917;-76
2022/05/03 04:24:52;;;;;;;;;;;;;;;18.04;43.80;102062.69;4981174;28;19926;-76
2022/05/03 04:27:19;;;;;;;;;;;;;;;18.04;44.01;102067.91;4964651;28;19918;-76
2022/05/03 04:29:44;;;;;;;;;;;;;;;18.03;43.82;102069.63;4997987;28;20017;-79
2022/05/03 04:32:09;;;;;;;;;;;;;;;18.04;43.90;102073.09;4980651;28;19961;-77
2022/05/03 04:34:34;;;;;;;;;;;;;;;18.04;43.86;102067.91;4964678;28;19953;-76
2022/05/03 04:37:00;;;;;;;;;;;;;;;18.04;43.95;102068.75;4981097;28;19973;-76
2022/05/03 04:39:25;;;;;;;;;;;;;;;18.04;44.01;102065.28;4980215;28;19928;-76
2022/05/03 04:41:50;;;;;;;;;;;;;;;18.03;43.77;102067.03;4980225;28;20403;-76
2022/05/03 04:44:16;;;;;;;;;;;;;;;18.05;43.84;102067.03;4979932;28;19929;-76
2022/05/03 04:46:41;;;;;;;;;;;;;;;18.04;44.06;102066.16;4963851;28;19918;-76
2022/05/03 04:49:06;;;;;;;;;;;;;;;18.05;43.82;102064.41;4963948;28;19918;-76
2022/05/03 04:51:33;;;;;;;;;;;;;;;18.03;43.83;102059.22;4980113;28;20025;-76
2022/05/03 04:53:58;;;;;;;;;;;;;;;18.04;43.79;102068.75;4964938;28;19918;-76
2022/05/03 04:56:24;;;;;;;;;;;;;;;18.04;43.77;102060.09;4979841;28;19929;-76
2022/05/03 04:58:50;;;;;;;;;;;;;;;18.04;43.85;102062.69;4979934;28;19913;-76
2022/05/03 05:01:15;;;;;;;;;;;;;;;18.04;43.82;102063.56;4979633;28;20375;-77
2022/05/03 05:03:41;;;;;;;;;;;;;;;18.04;43.71;102068.75;4979486;28;19920;-76
2022/05/03 05:06:07;;;;;;;;;;;;;;;18.04;43.92;102068.75;4963591;28;19918;-77
2022/05/03 05:08:32;;;;;;;;;;;;;;;18.05;43.79;102067.03;4963825;28;20438;-75
2022/05/03 05:10:57;;;;;;;;;;;;;;;18.05;43.79;102072.22;4978574;28;20012;-76
2022/05/03 05:13:23;;;;;;;;;;;;;;;18.04;43.95;102075.72;4979574;28;19918;-78
2022/05/03 05:15:49;;;;;;;;;;;;;;;18.05;43.76;102072.22;4963268;28;19918;-78
2022/05/03 05:18:16;;;;;;;;;;;;;;;18.04;43.83;102083.53;4979502;28;19937;-76
2022/05/03 05:20:41;;;;;;;;;;;;;;;18.04;43.95;102081.78;4979606;28;20004;-77
2022/05/03 05:23:07;;;;;;;;;;;;;;;18.04;43.84;102084.38;4979595;28;19984;-77
2022/05/03 05:25:32;;;;;;;;;;;;;;;18.04;43.99;102086.13;4996478;28;19926;-77
2022/05/03 05:27:57;;;;;;;;;;;;;;;18.05;44.00;102090.47;4979053;28;19913;-76
2022/05/03 05:30:22;;;;;;;;;;;;;;;18.04;43.79;102078.31;4979065;28;19922;-76
2022/05/03 05:32:48;;;;;;;;;;;;;;;18.04;43.80;102083.53;4962895;28;19922;-77
2022/05/03 05:35:13;;;;;;;;;;;;;;;18.04;43.79;102083.53;4962944;28;19917;-77
2022/05/03 05:37:38;;;;;;;;;;;;;;;18.04;43.80;102083.53;4962894;28;20379;-78
2022/05/03 05:40:04;;;;;;;;;;;;;;;18.04;43.80;102081.78;4978720;28;19977;-78
2022/05/03 05:42:29;;;;;;;;;;;;;;;18.04;43.85;102081.78;4996001;28;19972;-78
2022/05/03 05:44:55;;;;;;;;;;;;;;;18.04;43.71;102084.38;4978833;28;19913;-79
2022/05/03 05:47:20;;;;;;;;;;;;;;;18.04;44.00;102079.19;4979134;28;19925;-77
2022/05/03 05:49:45;;;;;;;;;;;;;;;18.05;44.02;102080.03;4978526;28;19928;-76
2022/05/03 05:54:59;;;;;;;;;;;;;;;18.05;43.94;102083.53;4967924;28;19925;-77
2022/05/03 05:57:25;;;;;;;;;;;;;;;18.07;43.80;102075.72;4978624;28;19920;-77
2022/05/03 05:59:50;;;;;;;;;;;;;;;18.06;43.83;102085.28;4962237;28;20343;-77
2022/05/03 06:02:15;;;;;;;;;;;;;;;18.07;43.78;102084.44;4978583;28;20379;-76
2022/05/03 06:04:40;;;;;;;;;;;;;;;18.07;43.83;102084.44;4995965;28;19925;-77
2022/05/03 06:07:06;;;;;;;;;;;;;;;18.08;43.78;102085.31;4962519;28;19988;-77
2022/05/03 06:09:32;;;;;;;;;;;;;;;18.07;43.93;102087.03;4962326;28;19922;-77
2022/05/03 06:11:58;;;;;;;;;;;;;;;18.07;43.78;102094.84;4995312;28;20387;-76
2022/05/03 06:14:23;;;;;;;;;;;;;;;18.07;43.95;102089.66;4961830;28;19917;-76
2022/05/03 06:16:52;;;;;;;;;;;;;;;18.08;43.80;102090.50;4962404;28;19918;-75
2022/05/03 06:19:17;;;;;;;;;;;;;;;18.08;44.05;102090.50;4962019;28;20283;-75
2022/05/03 06:21:43;;;;;;;;;;;;;;;18.08;43.84;102093.13;4995832;28;19914;-77
2022/05/03 06:24:08;;;;;;;;;;;;;;;18.07;43.86;102089.66;4961719;28;19917;-75
2022/05/03 06:26:34;;;;;;;;;;;;;;;18.07;43.74;102092.25;4977663;28;19980;-77
2022/05/03 06:29:00;;;;;;;;;;;;;;;18.07;44.00;102100.06;4977901;28;19914;-76
2022/05/03 06:31:25;;;;;;;;;;;;;;;18.08;43.91;102095.72;4961572;28;20423;-77
2022/05/03 06:33:50;;;;;;;;;;;;;;;18.07;44.13;102099.16;4977845;28;19918;-76
2022/05/03 06:36:17;;;;;;;;;;;;;;;18.07;43.84;102091.34;4961461;28;19968;-77
2022/05/03 06:38:42;;;;;;;;;;;;;;;18.07;43.84;102091.34;4961722;28;19917;-77
2022/05/03 06:41:08;;;;;;;;;;;;;;;18.07;43.91;102092.25;4977688;28;19921;-77
2022/05/03 06:43:34;;;;;;;;;;;;;;;18.08;44.05;102093.97;4961770;28;19917;-77
2022/05/03 06:45:59;;;;;;;;;;;;;;;18.08;43.85;102096.59;4961562;28;20012;-77
2022/05/03 06:48:24;;;;;;;;;;;;;;;18.09;43.85;102097.44;4977702;28;19918;-77
2022/05/03 06:50:49;;;;;;;;;;;;;;;18.09;43.94;102100.94;4977409;28;19979;-80
2022/05/03 06:53:15;;;;;;;;;;;;;;;18.11;43.89;102100.06;4977387;28;19918;-76
2022/05/03 06:55:40;;;;;;;;;;;;;;;18.11;43.91;102098.34;4977687;28;19956;-76
2022/05/03 06:58:05;;;;;;;;;;;;;;;18.12;43.92;102107.91;4977555;28;19944;-76
2022/05/03 07:00:31;;;;;;;;;;;;;;;18.12;44.00;102107.91;4961255;28;19914;-78
2022/05/03 07:02:56;;;;;;;;;;;;;;;18.14;43.86;102103.59;4977163;28;19922;-77
2022/05/03 07:05:21;;;;;;;;;;;;;;;18.19;44.04;102104.50;4961192;28;19917;-76
2022/05/03 07:07:46;;;;;;;;;;;;;;;18.19;43.95;102104.50;4977478;28;19933;-77
2022/05/03 07:10:11;;;;;;;;;;;;;;;18.19;44.06;102107.09;4961050;28;19922;-76
2022/05/03 07:12:38;;;;;;;;;;;;;;;18.19;44.23;102108.84;4961271;28;20013;-76
2022/05/03 07:15:07;;;;;;;;;;;;;;;18.18;44.09;102117.50;4977154;28;20055;-77
2022/05/03 07:23:00;;;;;;;;;;;;;;;18.15;44.04;102120.94;4994608;28;19921;-76
2022/05/03 07:25:26;;;;;;;;;;;;;;;18.14;44.26;102119.22;4994160;28;20020;-76
2022/05/03 07:27:51;;;;;;;;;;;;;;;18.13;44.18;102121.81;4977139;28;19968;-76
2022/05/03 07:30:18;;;;;;;;;;;;;;;18.13;43.97;102125.28;4960995;28;20008;-75
2022/05/03 07:32:44;;;;;;;;;;;;;;;18.12;44.24;102126.16;4995180;28;20287;-76
2022/05/03 07:35:09;;;;;;;;;;;;;;;18.12;44.16;102122.66;4980916;28;19921;-76
2022/05/03 07:37:35;;;;;;;;;;;;;;;18.12;44.25;102131.34;4964876;28;20284;-76
2022/05/03 07:40:01;;;;;;;;;;;;;;;18.11;44.08;102129.59;4981015;28;19921;-76
2022/05/03 07:42:26;;;;;;;;;;;;;;;18.11;44.32;102133.94;4964851;28;19924;-76
2022/05/03 07:44:51;;;;;;;;;;;;;;;18.11;44.06;102133.94;4981121;28;19952;-76
2022/05/03 07:47:16;;;;;;;;;;;;;;;18.10;44.13;102130.47;4964644;28;19964;-76
2022/05/03 07:49:43;;;;;;;;;;;;;;;18.11;44.16;102131.34;4964722;28;19930;-76
2022/05/03 07:52:08;;;;;;;;;;;;;;;18.09;44.05;102129.59;4964821;28;19972;-75
2022/05/03 07:54:34;;;;;;;;;;;;;;;18.10;44.18;102130.47;4980593;28;20283;-75
2022/05/03 07:57:09;;;;;;;;;;;;;;;18.11;44.25;102128.72;4980680;28;19956;-77
2022/05/03 07:59:34;;;;;;;;;;;;;;;18.12;44.12;102133.06;4980617;28;19920;-76
2022/05/03 08:01:59;;;;;;;;;;;;;;;18.12;44.00;102139.19;4980497;28;19961;-76
2022/05/03 08:04:25;;;;;;;;;;;;;;;18.13;44.12;102127.00;4997977;28;19920;-77
2022/05/03 08:06:50;;;;;;;;;;;;;;;18.12;44.18;102133.97;4980641;28;19918;-75
2022/05/03 08:09:15;;;;;;;;;;;;;;;18.11;44.20;102129.59;4980800;28;19918;-76
2022/05/03 08:11:41;;;;;;;;;;;;;;;18.11;44.50;102126.13;4964156;28;20352;-75
2022/05/03 08:14:06;;;;;;;;;;;;;;;18.12;44.13;102133.06;4980568;28;19961;-76
2022/05/03 08:16:32;;;;;;;;;;;;;;;18.11;44.13;102129.59;4964127;28;19956;-76
2022/05/03 08:18:57;;;;;;;;;;;;;;;18.12;44.25;102135.66;4980346;28;19914;-76
2022/05/03 08:21:23;;;;;;;;;;;;;;;18.11;44.38;102136.53;4980278;28;19922;-76
2022/05/03 08:23:48;;;;;;;;;;;;;;;18.12;44.25;102130.47;4980153;28;19918;-76
2022/05/03 08:26:13;;;;;;;;;;;;;;;18.10;44.44;102135.69;4979774;28;19926;-76
2022/05/03 08:28:40;;;;;;;;;;;;;;;18.10;44.17;102138.28;4980140;28;20016;-76
2022/05/03 08:31:07;;;;;;;;;;;;;;;18.11;44.36;102139.16;4964151;28;19930;-75
2022/05/03 08:33:33;;;;;;;;;;;;;;;18.11;44.31;102142.63;4997305;28;19925;-76
2022/05/03 08:35:58;;;;;;;;;;;;;;;18.11;44.34;102140.03;4979886;28;19996;-76
2022/05/03 08:43:51;;;;;;;;;;;;;;;18.11;44.26;102147.84;4982471;28;19976;-76
2022/05/03 08:46:19;;;;;;;;;;;;;;;18.11;44.35;102149.56;4963130;28;20314;-77
2022/05/03 08:48:45;;;;;;;;;;;;;;;18.11;44.31;102150.44;4979716;28;19918;-78
2022/05/03 08:51:12;;;;;;;;;;;;;;;18.11;44.37;102149.56;4997046;28;19972;-77
2022/05/03 08:53:39;;;;;;;;;;;;;;;18.10;44.36;102151.31;4979075;28;19914;-75
2022/05/03 08:56:04;;;;;;;;;;;;;;;18.09;44.51;102147.84;4997253;28;20016;-77
2022/05/03 08:58:30;;;;;;;;;;;;;;;18.09;44.50;102150.44;4963340;28;20019;-76
2022/05/03 09:00:55;;;;;;;;;;;;;;;18.11;44.48;102157.38;4963383;28;19917;-75
2022/05/03 09:03:21;;;;;;;;;;;;;;;18.10;44.38;102161.72;4963952;28;20419;-77
2022/05/03 09:05:47;;;;;;;;;;;;;;;18.11;44.42;102160.00;4963262;28;19918;-76
2022/05/03 09:08:12;;;;;;;;;;;;;;;18.10;44.50;102161.72;4979314;28;19969;-76
2022/05/03 09:10:38;;;;;;;;;;;;;;;18.11;44.34;102167.81;4979288;28;19925;-76
2022/05/03 09:13:18;;;;;;;;;;;;;;;18.09;44.42;102173.88;4979269;28;19914;-76
2022/05/03 09:15:44;;;;;;;;;;;;;;;18.09;44.48;102173.88;4996845;28;19913;-76
2022/05/03 09:18:18;;;;;;;;;;;;;;;18.10;44.43;102174.75;4996585;28;19920;-75
2022/05/03 09:26:13;;;;;;;;;;;;;;;18.10;44.30;102179.97;4981679;28;19936;-76
2022/05/03 09:28:48;;;;;;;;;;;;;;;18.10;44.40;102177.38;4996571;28;20253;-77
2022/05/03 09:31:13;;;;;;;;;;;;;;;18.11;44.44;102183.44;4979074;28;19924;-76
2022/05/03 09:33:39;;;;;;;;;;;;;;;18.11;44.53;102175.63;4978845;28;20283;-77
2022/05/03 09:36:09;;;;;;;;;;;;;;;18.11;44.59;102176.50;4962653;28;19971;-77
2022/05/03 09:38:43;;;;;;;;;;;;;;;18.11;44.56;102170.41;4962948;28;19918;-77
2022/05/03 09:41:14;;;;;;;;;;;;;;;18.10;44.49;102177.38;4978594;28;19914;-76
2022/05/03 09:43:59;;;;;;;;;;;;;;;18.12;44.39;102177.34;4978726;28;19949;-77
2022/05/03 09:46:24;;;;;;;;;;;;;;;18.11;44.39;102179.09;4978497;28;19914;-77
2022/05/03 09:48:50;;;;;;;;;;;;;;;18.11;44.52;102183.44;4962593;28;19925;-78
2022/05/03 09:51:15;;;;;;;;;;;;;;;18.11;44.57;102180.84;4978461;28;20407;-77
2022/05/03 09:53:41;;;;;;;;;;;;;;;18.12;44.48;102186.06;4962498;28;20372;-77
2022/05/03 09:56:11;;;;;;;;;;;;;;;18.12;44.49;102178.25;4977993;28;19926;-77
2022/05/03 09:58:38;;;;;;;;;;;;;;;18.12;44.64;102182.56;4962478;28;19928;-78
2022/05/03 10:01:04;;;;;;;;;;;;;;;18.12;44.42;102183.47;4995926;28;19957;-77
2022/05/03 10:03:33;;;;;;;;;;;;;;;18.11;44.56;102183.44;4962500;28;20372;-76
2022/05/03 10:05:58;;;;;;;;;;;;;;;18.11;44.54;102194.72;4978548;28;19956;-76
2022/05/03 10:08:24;;;;;;;;;;;;;;;18.11;44.52;102199.06;4962338;28;19925;-77
2022/05/03 10:10:56;;;;;;;;;;;;;;;18.09;44.61;102194.72;4978642;28;19922;-77
2022/05/03 10:13:21;;;;;;;;;;;;;;;18.09;44.46;102192.13;4978488;28;19964;-77
2022/05/03 10:21:21;;;;;;;;;;;;;;;18.08;44.58;102199.91;4995782;28;20375;-76
2022/05/03 10:24:05;;;;;;;;;;;;;;;18.08;44.42;102200.78;4978010;28;19918;-78
2022/05/03 10:27:05;;;;;;;;;;;;;;;18.07;44.57;102196.44;4977629;28;19933;-77
2022/05/03 10:29:36;;;;;;;;;;;;;;;18.06;44.62;102197.28;4967010;28;19926;-77
2022/05/03 10:32:05;;;;;;;;;;;;;;;18.07;44.49;102192.94;4977886;28;20000;-77
2022/05/03 10:34:42;;;;;;;;;;;;;;;18.06;44.31;102189.47;4977707;28;19937;-78
2022/05/03 10:37:08;;;;;;;;;;;;;;;18.07;44.72;102198.16;4977701;28;20268;-77
2022/05/03 10:39:33;;;;;;;;;;;;;;;18.06;44.24;102199.91;4977787;28;20026;-76
2022/05/03 10:42:11;;;;;;;;;;;;;;;18.06;44.65;102197.28;4961645;28;19964;-77
2022/05/03 10:44:40;;;;;;;;;;;;;;;18.07;44.59;102198.16;4977567;28;19913;-77
2022/05/03 10:47:06;;;;;;;;;;;;;;;18.07;44.54;102192.94;4977540;28;19912;-76
2022/05/03 10:49:31;;;;;;;;;;;;;;;18.06;44.55;102197.28;4995104;28;20427;-76
2022/05/03 10:51:56;;;;;;;;;;;;;;;18.06;44.50;102193.81;4977581;28;19968;-77
2022/05/03 10:54:21;;;;;;;;;;;;;;;18.07;44.72;102192.94;4995053;28;19917;-76
2022/05/03 10:57:00;;;;;;;;;;;;;;;18.07;44.54;102192.94;4977691;28;19928;-77
2022/05/03 10:59:44;;;;;;;;;;;;;;;18.06;44.59;102199.03;4977499;28;20378;-77
2022/05/03 11:02:10;;;;;;;;;;;;;;;18.07;44.52;102192.94;4977270;28;20291;-76
2022/05/03 11:04:55;;;;;;;;;;;;;;;18.07;44.68;102192.94;4977362;28;20012;-76
2022/05/03 11:07:24;;;;;;;;;;;;;;;18.05;44.56;102185.13;4976158;28;20105;-76
2022/05/03 11:09:49;;;;;;;;;;;;;;;18.06;44.57;102197.28;4977379;28;19918;-77
2022/05/03 11:12:14;;;;;;;;;;;;;;;18.06;44.53;102194.69;4962151;28;19925;-76
2022/05/03 11:14:39;;;;;;;;;;;;;;;18.05;44.50;102190.34;4961187;28;19922;-76
2022/05/03 11:17:06;;;;;;;;;;;;;;;18.06;44.78;102194.69;4994649;28;19913;-77
2022/05/03 11:19:32;;;;;;;;;;;;;;;18.07;44.69;102192.94;4961353;28;19968;-76
2022/05/03 11:21:58;;;;;;;;;;;;;;;18.06;44.75;102193.81;4977244;28;20363;-75
2022/05/03 11:24:23;;;;;;;;;;;;;;;18.07;44.51;102192.94;4977012;28;19917;-77
2022/05/03 11:26:50;;;;;;;;;;;;;;;18.05;44.72;102186.84;4976942;28;19922;-76
2022/05/03 11:29:16;;;;;;;;;;;;;;;18.06;44.42;102184.25;4977123;28;19918;-76
2022/05/03 11:31:51;;;;;;;;;;;;;;;18.06;44.65;102189.47;4977163;28;20052;-76
2022/05/03 11:34:18;;;;;;;;;;;;;;;18.07;44.69;102182.53;4977149;28;20020;-76
2022/05/03 11:36:44;;;;;;;;;;;;;;;18.06;44.74;102176.44;4960934;28;19956;-77
2022/05/03 11:39:13;;;;;;;;;;;;;;;18.06;44.61;102181.66;4994632;28;19999;-76
2022/05/03 11:41:39;;;;;;;;;;;;;;;18.06;44.83;102172.97;4977098;28;20276;-77
2022/05/03 11:44:04;;;;;;;;;;;;;;;18.06;44.52;102171.25;4961074;28;20334;-77
2022/05/03 11:46:29;;;;;;;;;;;;;;;18.07;44.60;102169.50;4994620;28;19985;-77
2022/05/03 11:49:05;;;;;;;;;;;;;;;18.07;44.61;102177.31;4977175;28;19918;-76
2022/05/03 11:57:06;;;;;;;;;;;;;;;18.07;44.72;102169.50;4994805;28;20021;-77
2022/05/03 11:59:32;;;;;;;;;;;;;;;18.07;44.53;102177.31;4994159;28;19953;-74
2022/05/03 12:02:17;;;;;;;;;;;;;;;18.07;44.61;102173.00;4977048;28;20352;-77
2022/05/03 12:04:59;;;;;;;;;;;;;;;18.07;44.58;102161.69;4976913;28;19914;-76
2022/05/03 12:07:25;;;;;;;;;;;;;;;18.07;44.59;102159.06;4976887;28;19913;-76
2022/05/03 12:09:50;;;;;;;;;;;;;;;18.07;44.50;102156.47;4994081;28;19918;-77
2022/05/03 12:15:15;;;;;;;;;;;;;;;18.06;44.54;102160.81;4994539;28;19925;-78
2022/05/03 12:17:50;;;;;;;;;;;;;;;18.07;44.82;102164.28;4976828;28;19918;-76
2022/05/03 12:20:16;;;;;;;;;;;;;;;18.06;44.75;102160.81;4963329;28;19918;-78
2022/05/03 12:22:41;;;;;;;;;;;;;;;18.06;44.38;102157.34;4964020;28;20096;-77
2022/05/03 12:25:09;;;;;;;;;;;;;;;18.06;44.60;102166.03;4963885;28;19918;-78
2022/05/03 12:27:34;;;;;;;;;;;;;;;18.05;44.53;102159.09;4980207;28;19922;-77
2022/05/03 12:30:09;;;;;;;;;;;;;;;18.05;44.59;102156.47;4979969;28;20288;-77
2022/05/03 12:32:35;;;;;;;;;;;;;;;18.05;44.63;102161.69;4980177;28;20021;-77
2022/05/03 12:35:01;;;;;;;;;;;;;;;18.06;44.63;102157.34;4963945;28;19961;-77
2022/05/03 12:37:27;;;;;;;;;;;;;;;18.06;44.61;102149.53;4980035;28;19918;-77
2022/05/03 12:39:58;;;;;;;;;;;;;;;18.05;44.45;102156.47;4980013;28;19927;-77
2022/05/03 12:42:23;;;;;;;;;;;;;;;18.05;44.86;102159.09;4997302;28;19996;-76
2022/05/03 12:44:53;;;;;;;;;;;;;;;18.05;44.56;102160.78;4963971;28;20402;-77
2022/05/03 12:47:18;;;;;;;;;;;;;;;18.05;44.64;102156.47;4980026;28;19913;-77
2022/05/03 12:49:44;;;;;;;;;;;;;;;18.05;44.66;102156.47;4979787;28;19918;-77
2022/05/03 12:52:10;;;;;;;;;;;;;;;18.05;44.69;102155.59;4997198;28;20367;-78
2022/05/03 12:54:42;;;;;;;;;;;;;;;18.06;44.75;102159.94;4979725;28;19979;-77
2022/05/03 12:59:51;;;;;;;;;;;;;;;18.06;44.66;102149.53;4983013;28;19991;-78
2022/05/03 13:02:17;;;;;;;;;;;;;;;18.06;44.78;102152.13;4963565;28;20427;-75
2022/05/03 13:04:42;;;;;;;;;;;;;;;18.05;44.82;102148.66;4979436;28;19914;-77
2022/05/03 13:07:07;;;;;;;;;;;;;;;18.06;44.81;102147.78;4979786;28;20008;-76
2022/05/03 13:09:33;;;;;;;;;;;;;;;18.07;44.57;102146.94;4963236;28;19922;-76
2022/05/03 13:11:59;;;;;;;;;;;;;;;18.07;44.83;102144.34;4963313;28;19965;-78
2022/05/03 13:14:26;;;;;;;;;;;;;;;18.07;44.43;102141.75;4963613;28;19950;-78
2022/05/03 13:16:52;;;;;;;;;;;;;;;18.08;44.85;102137.41;4979730;28;19983;-77
2022/05/03 13:19:17;;;;;;;;;;;;;;;18.08;44.55;102137.41;4992576;28;19906;-87
2022/05/03 13:21:43;;;;;;;;;;;;;;;18.08;44.89;102138.25;5001199;28;19937;-88
2022/05/03 13:24:08;;;;;;;;;;;;;;;18.09;44.80;102136.53;5018380;28;19937;-87